Mill City, Nevada
Current Conditions -  °F | °C
As of 3:56 PM on Thursday 27 Nov 2014 (Local Time) from KWMC Reporting Station
Clear Clear  
Wind Chill: 58°   Ceiling: Unl
Heat Index: 58°   Visibility: 10mi
Dew Point: 25°   Wind: 10mph
Humidity: 28%   Direction: 180°S
Pressure: 30.11"   Gusts: NA
Location:  40.601°N, 117.984°W
Report Text: KWMC 272356Z AUTO 18009KT 10SM CLR 14/M04 A3011 RMK AO2 SLP184 T01441039 10161 20139 56014
Loading
Personal Weather Stations






























Interactive Weather Map New forecast layout! Learn more

10-Day Weather Forecast

Advertisements
Track Severe Weather on mobile